메인 페이지
METAR-TAF:

METAR-TAF

공항 :

San Luis County Regional Airport

샌루이스오비스포, 캘리포니아, 미국

위도: 35-14-10N, 경도: 120-38-10W, 고도: 63m

현재 날씨관측

예보는 17분 전, 20:56시(UTC)에 발표되었습니다.
무풍
온도 22°C
습도 57%
기압 1016 hPa
시정: 16.1km
고도 2000ft 상공 구름 많음

METAR: KSBP 132056Z 00000KT 10SM BKN020 22/13 A3001 RMK AO2 SLP161 T02220133 50002 $

시각: 14:13 (21:13 UTC)

예보

예보는 1 시간 37분 전, 19:36시(UTC)에 발표되었습니다.
예보 대상 시간: 13일 20시부터 14일 18시까지 (UTC)
6kt
시정: 10km
고도 1500ft 상공 구름 많음
13일 2300시부터 (UTC)
서북서10kt
시정: 10km
맑음
14일 0400시부터 (UTC)
서북서6kt
시정: 8.0km
고도 400ft 상공 흐림
박무
14일 1700시부터 (UTC)
북서8kt
시정: 10km
고도 700ft 상공 구름 많음

TAF: KSBP 131936Z 1320/1418 26006KT P6SM BKN015 FM132300 30010KT P6SM SKC FM140400 30006KT 5SM BR OVC004 FM141700 31008KT P6SM BKN007

4,000개 이상의 공항 관측 자료 및 예보 (METAR 및 TAF 보고).

지도상에서 검색 가능한 기상관측소가 노란 점과 빨간 점으로 표시되어 있습니다.

기상관측소 명을 보려면 표시 위로 마우스를 이동하세요.

날씨 관측과 예보를 보려면 클릭하세요.

지도 변경 : 확대하려면 엑스 표시가 있는 녹색 버튼, 축소하려면 빼기 표시가 있는 녹색 버튼, 다음 페이지의 지도를 보려면 녹색 화살표를 클릭하세요.


METAR-TAF: